sensor_id;sensor_type;location;lat;lon;timestamp;P1;durP1;ratioP1;P2;durP2;ratioP2
20462;SDS011;10390;53.566;9.980;2022-12-26T00:01:51;9.50;;;7.20;;
20462;SDS011;10390;53.566;9.980;2022-12-26T00:04:18;8.38;;;5.93;;
20462;SDS011;10390;53.566;9.980;2022-12-26T00:06:44;10.50;;;7.28;;
20462;SDS011;10390;53.566;9.980;2022-12-26T00:09:10;9.20;;;6.82;;
20462;SDS011;10390;53.566;9.980;2022-12-26T00:11:36;9.77;;;7.05;;
20462;SDS011;10390;53.566;9.980;2022-12-26T00:14:09;9.40;;;6.40;;
20462;SDS011;10390;53.566;9.980;2022-12-26T00:16:38;8.95;;;6.68;;
20462;SDS011;10390;53.566;9.980;2022-12-26T00:19:05;10.13;;;6.95;;
20462;SDS011;10390;53.566;9.980;2022-12-26T00:21:31;8.75;;;6.00;;
20462;SDS011;10390;53.566;9.980;2022-12-26T00:23:57;8.80;;;6.05;;
20462;SDS011;10390;53.566;9.980;2022-12-26T00:26:24;9.75;;;6.88;;
20462;SDS011;10390;53.566;9.980;2022-12-26T00:28:52;8.98;;;6.68;;
20462;SDS011;10390;53.566;9.980;2022-12-26T00:31:20;9.10;;;6.65;;
20462;SDS011;10390;53.566;9.980;2022-12-26T00:33:50;8.65;;;6.32;;
20462;SDS011;10390;53.566;9.980;2022-12-26T00:36:20;8.73;;;6.57;;
20462;SDS011;10390;53.566;9.980;2022-12-26T00:38:52;8.05;;;6.38;;
20462;SDS011;10390;53.566;9.980;2022-12-26T00:41:18;9.32;;;6.70;;
20462;SDS011;10390;53.566;9.980;2022-12-26T00:43:44;11.43;;;6.80;;
20462;SDS011;10390;53.566;9.980;2022-12-26T00:46:10;8.52;;;6.60;;
20462;SDS011;10390;53.566;9.980;2022-12-26T00:48:36;8.32;;;6.32;;
20462;SDS011;10390;53.566;9.980;2022-12-26T00:51:02;8.82;;;6.38;;
20462;SDS011;10390;53.566;9.980;2022-12-26T00:53:29;9.57;;;6.57;;
20462;SDS011;10390;53.566;9.980;2022-12-26T00:55:55;8.75;;;6.90;;
20462;SDS011;10390;53.566;9.980;2022-12-26T00:58:20;8.52;;;6.70;;
20462;SDS011;10390;53.566;9.980;2022-12-26T01:00:47;10.02;;;7.55;;
20462;SDS011;10390;53.566;9.980;2022-12-26T01:03:13;9.07;;;6.78;;
20462;SDS011;10390;53.566;9.980;2022-12-26T01:05:40;9.13;;;6.88;;
20462;SDS011;10390;53.566;9.980;2022-12-26T01:08:06;8.57;;;6.25;;
20462;SDS011;10390;53.566;9.980;2022-12-26T01:10:32;9.40;;;6.68;;
20462;SDS011;10390;53.566;9.980;2022-12-26T01:12:58;9.18;;;6.30;;
20462;SDS011;10390;53.566;9.980;2022-12-26T01:15:23;8.00;;;6.15;;
20462;SDS011;10390;53.566;9.980;2022-12-26T01:17:49;9.48;;;6.65;;
20462;SDS011;10390;53.566;9.980;2022-12-26T01:20:14;9.02;;;6.82;;
20462;SDS011;10390;53.566;9.980;2022-12-26T01:22:40;9.10;;;6.72;;
20462;SDS011;10390;53.566;9.980;2022-12-26T01:25:06;9.30;;;6.85;;
20462;SDS011;10390;53.566;9.980;2022-12-26T01:27:32;9.43;;;6.50;;
20462;SDS011;10390;53.566;9.980;2022-12-26T01:29:57;7.95;;;6.38;;
20462;SDS011;10390;53.566;9.980;2022-12-26T01:32:23;9.10;;;6.55;;
20462;SDS011;10390;53.566;9.980;2022-12-26T01:34:48;9.15;;;7.03;;
20462;SDS011;10390;53.566;9.980;2022-12-26T01:37:16;7.65;;;5.97;;
20462;SDS011;10390;53.566;9.980;2022-12-26T01:39:42;8.05;;;5.90;;
20462;SDS011;10390;53.566;9.980;2022-12-26T01:42:11;10.18;;;7.15;;
20462;SDS011;10390;53.566;9.980;2022-12-26T01:47:19;8.85;;;6.68;;
20462;SDS011;10390;53.566;9.980;2022-12-26T01:49:48;9.52;;;6.80;;
20462;SDS011;10390;53.566;9.980;2022-12-26T01:52:19;8.07;;;6.45;;
20462;SDS011;10390;53.566;9.980;2022-12-26T01:54:49;8.27;;;6.85;;
20462;SDS011;10390;53.566;9.980;2022-12-26T01:57:21;8.10;;;6.50;;
20462;SDS011;10390;53.566;9.980;2022-12-26T01:59:52;8.10;;;6.05;;
20462;SDS011;10390;53.566;9.980;2022-12-26T02:02:19;8.05;;;6.30;;
20462;SDS011;10390;53.566;9.980;2022-12-26T02:04:47;8.55;;;6.57;;
20462;SDS011;10390;53.566;9.980;2022-12-26T02:07:33;9.10;;;6.93;;
20462;SDS011;10390;53.566;9.980;2022-12-26T02:10:00;8.65;;;6.50;;
20462;SDS011;10390;53.566;9.980;2022-12-26T02:12:28;8.88;;;6.75;;
20462;SDS011;10390;53.566;9.980;2022-12-26T02:14:56;8.15;;;6.57;;
20462;SDS011;10390;53.566;9.980;2022-12-26T02:17:23;9.02;;;7.10;;
20462;SDS011;10390;53.566;9.980;2022-12-26T02:37:17;8.82;;;6.70;;
20462;SDS011;10390;53.566;9.980;2022-12-26T02:42:41;9.93;;;7.50;;
20462;SDS011;10390;53.566;9.980;2022-12-26T02:45:17;8.48;;;6.70;;
20462;SDS011;10390;53.566;9.980;2022-12-26T02:54:00;9.00;;;7.18;;
20462;SDS011;10390;53.566;9.980;2022-12-26T02:56:52;8.15;;;6.55;;
20462;SDS011;10390;53.566;9.980;2022-12-26T03:02:51;8.77;;;6.78;;
20462;SDS011;10390;53.566;9.980;2022-12-26T03:05:53;8.65;;;6.95;;
20462;SDS011;10390;53.566;9.980;2022-12-26T03:08:46;9.30;;;6.70;;
20462;SDS011;10390;53.566;9.980;2022-12-26T03:11:38;8.20;;;6.53;;
20462;SDS011;10390;53.566;9.980;2022-12-26T03:14:26;9.35;;;7.30;;
20462;SDS011;10390;53.566;9.980;2022-12-26T03:17:00;9.13;;;6.95;;
20462;SDS011;10390;53.566;9.980;2022-12-26T03:19:53;8.50;;;6.82;;
20462;SDS011;10390;53.566;9.980;2022-12-26T03:22:27;10.90;;;7.35;;
20462;SDS011;10390;53.566;9.980;2022-12-26T03:25:09;9.05;;;6.97;;
20462;SDS011;10390;53.566;9.980;2022-12-26T03:27:55;10.77;;;7.20;;
20462;SDS011;10390;53.566;9.980;2022-12-26T03:30:20;10.20;;;7.75;;
20462;SDS011;10390;53.566;9.980;2022-12-26T03:33:05;10.48;;;7.28;;
20462;SDS011;10390;53.566;9.980;2022-12-26T03:35:51;10.05;;;7.28;;
20462;SDS011;10390;53.566;9.980;2022-12-26T03:38:17;9.25;;;6.88;;
20462;SDS011;10390;53.566;9.980;2022-12-26T03:40:52;9.52;;;7.65;;
20462;SDS011;10390;53.566;9.980;2022-12-26T03:50:04;9.27;;;6.97;;
20462;SDS011;10390;53.566;9.980;2022-12-26T03:53:00;9.13;;;7.03;;
20462;SDS011;10390;53.566;9.980;2022-12-26T03:56:05;9.90;;;7.50;;
20462;SDS011;10390;53.566;9.980;2022-12-26T03:59:06;8.88;;;7.28;;
20462;SDS011;10390;53.566;9.980;2022-12-26T04:02:00;9.27;;;7.03;;
20462;SDS011;10390;53.566;9.980;2022-12-26T04:04:47;8.55;;;6.75;;
20462;SDS011;10390;53.566;9.980;2022-12-26T04:07:36;9.38;;;7.18;;
20462;SDS011;10390;53.566;9.980;2022-12-26T04:10:26;9.75;;;7.10;;
20462;SDS011;10390;53.566;9.980;2022-12-26T04:13:28;8.77;;;7.00;;
20462;SDS011;10390;53.566;9.980;2022-12-26T04:16:30;8.30;;;6.53;;
20462;SDS011;10390;53.566;9.980;2022-12-26T04:25:11;8.05;;;6.68;;
20462;SDS011;10390;53.566;9.980;2022-12-26T04:28:02;8.23;;;6.53;;
20462;SDS011;10390;53.566;9.980;2022-12-26T04:30:49;8.18;;;6.50;;
20462;SDS011;10390;53.566;9.980;2022-12-26T04:33:52;9.10;;;7.00;;
20462;SDS011;10390;53.566;9.980;2022-12-26T04:36:44;9.00;;;6.97;;
20462;SDS011;10390;53.566;9.980;2022-12-26T04:39:35;9.05;;;7.07;;
20462;SDS011;10390;53.566;9.980;2022-12-26T04:42:23;8.13;;;6.60;;
20462;SDS011;10390;53.566;9.980;2022-12-26T04:45:09;8.73;;;6.95;;
20462;SDS011;10390;53.566;9.980;2022-12-26T04:47:37;9.48;;;7.20;;
20462;SDS011;10390;53.566;9.980;2022-12-26T04:50:22;7.80;;;6.25;;
20462;SDS011;10390;53.566;9.980;2022-12-26T04:52:48;8.10;;;6.70;;
20462;SDS011;10390;53.566;9.980;2022-12-26T04:55:32;7.95;;;6.55;;
20462;SDS011;10390;53.566;9.980;2022-12-26T04:57:59;8.10;;;6.40;;
20462;SDS011;10390;53.566;9.980;2022-12-26T05:00:26;8.05;;;6.22;;
20462;SDS011;10390;53.566;9.980;2022-12-26T05:02:55;8.23;;;6.22;;
20462;SDS011;10390;53.566;9.980;2022-12-26T05:05:40;7.68;;;5.85;;
20462;SDS011;10390;53.566;9.980;2022-12-26T05:08:44;8.23;;;5.82;;
20462;SDS011;10390;53.566;9.980;2022-12-26T05:11:30;7.78;;;6.45;;
20462;SDS011;10390;53.566;9.980;2022-12-26T05:13:57;8.30;;;6.38;;
20462;SDS011;10390;53.566;9.980;2022-12-26T05:16:24;7.13;;;5.70;;
20462;SDS011;10390;53.566;9.980;2022-12-26T05:19:10;8.02;;;6.00;;
20462;SDS011;10390;53.566;9.980;2022-12-26T05:21:56;7.57;;;5.95;;
20462;SDS011;10390;53.566;9.980;2022-12-26T05:24:42;7.80;;;5.93;;
20462;SDS011;10390;53.566;9.980;2022-12-26T05:27:30;8.02;;;6.38;;
20462;SDS011;10390;53.566;9.980;2022-12-26T05:30:19;7.28;;;5.70;;
20462;SDS011;10390;53.566;9.980;2022-12-26T05:32:45;7.45;;;5.85;;
20462;SDS011;10390;53.566;9.980;2022-12-26T05:35:29;6.85;;;5.00;;
20462;SDS011;10390;53.566;9.980;2022-12-26T05:37:56;7.55;;;6.22;;
20462;SDS011;10390;53.566;9.980;2022-12-26T05:40:21;6.93;;;5.75;;
20462;SDS011;10390;53.566;9.980;2022-12-26T05:42:47;6.53;;;5.18;;
20462;SDS011;10390;53.566;9.980;2022-12-26T05:45:12;7.18;;;5.68;;
20462;SDS011;10390;53.566;9.980;2022-12-26T05:47:38;7.68;;;5.70;;
20462;SDS011;10390;53.566;9.980;2022-12-26T05:50:04;6.95;;;5.28;;
20462;SDS011;10390;53.566;9.980;2022-12-26T05:52:31;7.80;;;5.82;;
20462;SDS011;10390;53.566;9.980;2022-12-26T05:54:57;7.68;;;6.07;;
20462;SDS011;10390;53.566;9.980;2022-12-26T05:57:22;7.60;;;5.50;;
20462;SDS011;10390;53.566;9.980;2022-12-26T05:59:48;6.80;;;5.18;;
20462;SDS011;10390;53.566;9.980;2022-12-26T06:02:13;7.25;;;5.53;;
20462;SDS011;10390;53.566;9.980;2022-12-26T06:04:39;7.45;;;5.50;;
20462;SDS011;10390;53.566;9.980;2022-12-26T06:07:04;6.68;;;5.18;;
20462;SDS011;10390;53.566;9.980;2022-12-26T06:09:30;6.45;;;4.95;;
20462;SDS011;10390;53.566;9.980;2022-12-26T06:11:55;6.82;;;5.47;;
20462;SDS011;10390;53.566;9.980;2022-12-26T06:14:21;7.97;;;5.65;;
20462;SDS011;10390;53.566;9.980;2022-12-26T06:16:47;7.25;;;5.18;;
20462;SDS011;10390;53.566;9.980;2022-12-26T06:19:12;6.78;;;5.28;;
20462;SDS011;10390;53.566;9.980;2022-12-26T06:21:38;6.80;;;5.22;;
20462;SDS011;10390;53.566;9.980;2022-12-26T06:24:03;7.75;;;5.93;;
20462;SDS011;10390;53.566;9.980;2022-12-26T06:26:29;6.45;;;5.20;;
20462;SDS011;10390;53.566;9.980;2022-12-26T06:28:55;7.03;;;5.20;;
20462;SDS011;10390;53.566;9.980;2022-12-26T06:31:21;6.85;;;5.22;;
20462;SDS011;10390;53.566;9.980;2022-12-26T06:33:48;7.18;;;4.95;;
20462;SDS011;10390;53.566;9.980;2022-12-26T06:36:16;6.60;;;5.47;;
20462;SDS011;10390;53.566;9.980;2022-12-26T06:38:43;6.45;;;5.05;;
20462;SDS011;10390;53.566;9.980;2022-12-26T06:41:11;6.18;;;4.90;;
20462;SDS011;10390;53.566;9.980;2022-12-26T06:43:39;7.00;;;5.38;;
20462;SDS011;10390;53.566;9.980;2022-12-26T06:46:06;7.13;;;5.40;;
20462;SDS011;10390;53.566;9.980;2022-12-26T06:48:33;7.10;;;5.35;;
20462;SDS011;10390;53.566;9.980;2022-12-26T06:51:03;7.30;;;5.40;;
20462;SDS011;10390;53.566;9.980;2022-12-26T06:53:32;6.25;;;4.68;;
20462;SDS011;10390;53.566;9.980;2022-12-26T06:56:08;7.20;;;5.28;;
20462;SDS011;10390;53.566;9.980;2022-12-26T06:58:36;6.32;;;4.93;;
20462;SDS011;10390;53.566;9.980;2022-12-26T07:01:03;7.07;;;5.25;;
20462;SDS011;10390;53.566;9.980;2022-12-26T07:03:30;7.55;;;5.80;;
20462;SDS011;10390;53.566;9.980;2022-12-26T07:05:55;7.13;;;5.18;;
20462;SDS011;10390;53.566;9.980;2022-12-26T07:08:21;7.50;;;5.63;;
20462;SDS011;10390;53.566;9.980;2022-12-26T07:10:46;6.57;;;5.60;;
20462;SDS011;10390;53.566;9.980;2022-12-26T07:13:12;6.28;;;5.25;;
20462;SDS011;10390;53.566;9.980;2022-12-26T07:15:37;6.47;;;5.22;;
20462;SDS011;10390;53.566;9.980;2022-12-26T07:18:03;6.90;;;5.10;;
20462;SDS011;10390;53.566;9.980;2022-12-26T07:20:29;6.85;;;5.30;;
20462;SDS011;10390;53.566;9.980;2022-12-26T07:22:54;6.60;;;5.05;;
20462;SDS011;10390;53.566;9.980;2022-12-26T07:25:20;6.18;;;4.82;;
20462;SDS011;10390;53.566;9.980;2022-12-26T07:27:46;6.18;;;4.65;;
20462;SDS011;10390;53.566;9.980;2022-12-26T07:30:11;6.22;;;4.90;;
20462;SDS011;10390;53.566;9.980;2022-12-26T07:32:37;6.63;;;4.75;;
20462;SDS011;10390;53.566;9.980;2022-12-26T07:35:02;12.43;;;5.95;;
20462;SDS011;10390;53.566;9.980;2022-12-26T07:37:28;8.18;;;4.63;;
20462;SDS011;10390;53.566;9.980;2022-12-26T07:39:54;6.13;;;4.22;;
20462;SDS011;10390;53.566;9.980;2022-12-26T07:42:19;6.53;;;4.88;;
20462;SDS011;10390;53.566;9.980;2022-12-26T07:44:45;7.68;;;4.88;;
20462;SDS011;10390;53.566;9.980;2022-12-26T07:47:11;6.65;;;4.85;;
20462;SDS011;10390;53.566;9.980;2022-12-26T07:49:36;6.95;;;4.68;;
20462;SDS011;10390;53.566;9.980;2022-12-26T07:52:02;6.20;;;4.85;;
20462;SDS011;10390;53.566;9.980;2022-12-26T07:54:28;6.15;;;4.20;;
20462;SDS011;10390;53.566;9.980;2022-12-26T07:56:56;7.07;;;4.72;;
20462;SDS011;10390;53.566;9.980;2022-12-26T07:59:21;5.55;;;4.38;;
20462;SDS011;10390;53.566;9.980;2022-12-26T08:01:47;9.30;;;4.82;;
20462;SDS011;10390;53.566;9.980;2022-12-26T08:04:13;5.97;;;4.70;;
20462;SDS011;10390;53.566;9.980;2022-12-26T08:06:38;6.43;;;4.80;;
20462;SDS011;10390;53.566;9.980;2022-12-26T08:09:04;6.97;;;4.78;;
20462;SDS011;10390;53.566;9.980;2022-12-26T08:11:31;6.47;;;4.70;;
20462;SDS011;10390;53.566;9.980;2022-12-26T08:13:58;6.22;;;4.50;;
20462;SDS011;10390;53.566;9.980;2022-12-26T08:16:24;8.48;;;4.88;;
20462;SDS011;10390;53.566;9.980;2022-12-26T08:18:49;6.43;;;4.22;;
20462;SDS011;10390;53.566;9.980;2022-12-26T08:21:15;10.27;;;5.13;;
20462;SDS011;10390;53.566;9.980;2022-12-26T08:23:41;6.90;;;4.53;;
20462;SDS011;10390;53.566;9.980;2022-12-26T08:26:07;8.23;;;4.82;;
20462;SDS011;10390;53.566;9.980;2022-12-26T08:28:34;8.82;;;4.72;;
20462;SDS011;10390;53.566;9.980;2022-12-26T08:31:04;7.82;;;4.63;;
20462;SDS011;10390;53.566;9.980;2022-12-26T08:33:33;10.98;;;5.15;;
20462;SDS011;10390;53.566;9.980;2022-12-26T08:36:09;10.15;;;4.95;;
20462;SDS011;10390;53.566;9.980;2022-12-26T08:38:37;8.80;;;5.22;;
20462;SDS011;10390;53.566;9.980;2022-12-26T08:41:04;9.65;;;4.97;;
20462;SDS011;10390;53.566;9.980;2022-12-26T08:43:30;8.68;;;5.47;;
20462;SDS011;10390;53.566;9.980;2022-12-26T08:46:02;10.15;;;5.07;;
20462;SDS011;10390;53.566;9.980;2022-12-26T08:48:30;12.55;;;5.13;;
20462;SDS011;10390;53.566;9.980;2022-12-26T08:51:00;11.95;;;5.35;;
20462;SDS011;10390;53.566;9.980;2022-12-26T08:53:28;10.30;;;5.32;;
20462;SDS011;10390;53.566;9.980;2022-12-26T08:55:57;8.10;;;5.13;;
20462;SDS011;10390;53.566;9.980;2022-12-26T08:58:23;9.65;;;5.20;;
20462;SDS011;10390;53.566;9.980;2022-12-26T09:00:49;13.52;;;5.32;;
20462;SDS011;10390;53.566;9.980;2022-12-26T09:03:14;10.25;;;5.10;;
20462;SDS011;10390;53.566;9.980;2022-12-26T09:05:40;12.60;;;6.10;;
20462;SDS011;10390;53.566;9.980;2022-12-26T09:08:06;12.35;;;5.20;;
20462;SDS011;10390;53.566;9.980;2022-12-26T09:10:32;13.57;;;5.50;;
20462;SDS011;10390;53.566;9.980;2022-12-26T09:12:58;15.93;;;5.45;;
20462;SDS011;10390;53.566;9.980;2022-12-26T09:15:23;12.52;;;5.95;;
20462;SDS011;10390;53.566;9.980;2022-12-26T09:17:49;12.32;;;6.15;;
20462;SDS011;10390;53.566;9.980;2022-12-26T09:20:15;10.63;;;5.40;;
20462;SDS011;10390;53.566;9.980;2022-12-26T09:22:40;17.45;;;5.60;;
20462;SDS011;10390;53.566;9.980;2022-12-26T09:25:19;14.30;;;5.55;;
20462;SDS011;10390;53.566;9.980;2022-12-26T09:27:46;12.80;;;5.57;;
20462;SDS011;10390;53.566;9.980;2022-12-26T09:30:13;14.52;;;5.72;;
20462;SDS011;10390;53.566;9.980;2022-12-26T09:32:38;17.52;;;5.88;;
20462;SDS011;10390;53.566;9.980;2022-12-26T09:35:04;17.02;;;5.63;;
20462;SDS011;10390;53.566;9.980;2022-12-26T09:37:30;17.67;;;6.50;;
20462;SDS011;10390;53.566;9.980;2022-12-26T09:39:56;15.18;;;5.53;;
20462;SDS011;10390;53.566;9.980;2022-12-26T09:45:18;13.77;;;5.32;;
20462;SDS011;10390;53.566;9.980;2022-12-26T09:50:26;22.50;;;5.22;;
20462;SDS011;10390;53.566;9.980;2022-12-26T09:53:06;10.60;;;4.30;;
20462;SDS011;10390;53.566;9.980;2022-12-26T09:55:55;11.85;;;4.72;;
20462;SDS011;10390;53.566;9.980;2022-12-26T10:03:51;15.38;;;5.45;;
20462;SDS011;10390;53.566;9.980;2022-12-26T10:14:43;11.63;;;5.00;;
20462;SDS011;10390;53.566;9.980;2022-12-26T10:17:28;10.32;;;4.43;;
20462;SDS011;10390;53.566;9.980;2022-12-26T10:25:41;10.02;;;4.72;;
20462;SDS011;10390;53.566;9.980;2022-12-26T10:30:55;14.13;;;5.40;;
20462;SDS011;10390;53.566;9.980;2022-12-26T10:33:32;11.45;;;4.50;;
20462;SDS011;10390;53.566;9.980;2022-12-26T10:36:08;10.27;;;4.50;;
20462;SDS011;10390;53.566;9.980;2022-12-26T10:38:41;12.40;;;5.15;;
20462;SDS011;10390;53.566;9.980;2022-12-26T10:41:22;13.98;;;4.88;;
20462;SDS011;10390;53.566;9.980;2022-12-26T10:43:56;12.63;;;5.32;;
20462;SDS011;10390;53.566;9.980;2022-12-26T10:49:00;12.50;;;5.28;;
20462;SDS011;10390;53.566;9.980;2022-12-26T10:51:26;18.63;;;5.20;;
20462;SDS011;10390;53.566;9.980;2022-12-26T10:53:52;21.27;;;6.85;;
20462;SDS011;10390;53.566;9.980;2022-12-26T10:56:18;16.25;;;5.90;;
20462;SDS011;10390;53.566;9.980;2022-12-26T10:58:46;16.50;;;5.70;;
20462;SDS011;10390;53.566;9.980;2022-12-26T11:03:53;19.80;;;6.47;;
20462;SDS011;10390;53.566;9.980;2022-12-26T11:06:20;23.15;;;6.10;;
20462;SDS011;10390;53.566;9.980;2022-12-26T11:12:17;17.42;;;6.35;;
20462;SDS011;10390;53.566;9.980;2022-12-26T11:15:01;21.30;;;6.95;;
20462;SDS011;10390;53.566;9.980;2022-12-26T11:17:30;13.27;;;6.28;;
20462;SDS011;10390;53.566;9.980;2022-12-26T11:22:41;15.80;;;6.18;;
20462;SDS011;10390;53.566;9.980;2022-12-26T11:27:33;17.20;;;6.65;;
20462;SDS011;10390;53.566;9.980;2022-12-26T11:32:38;15.13;;;6.47;;
20462;SDS011;10390;53.566;9.980;2022-12-26T11:35:04;16.08;;;6.03;;
20462;SDS011;10390;53.566;9.980;2022-12-26T11:37:33;11.00;;;5.70;;
20462;SDS011;10390;53.566;9.980;2022-12-26T11:40:05;13.82;;;5.72;;
20462;SDS011;10390;53.566;9.980;2022-12-26T11:42:39;16.10;;;5.70;;
20462;SDS011;10390;53.566;9.980;2022-12-26T11:45:08;15.70;;;5.60;;
20462;SDS011;10390;53.566;9.980;2022-12-26T11:47:35;16.60;;;5.20;;
20462;SDS011;10390;53.566;9.980;2022-12-26T11:52:38;15.20;;;5.28;;
20462;SDS011;10390;53.566;9.980;2022-12-26T12:00:26;18.27;;;5.60;;
20462;SDS011;10390;53.566;9.980;2022-12-26T12:02:53;13.30;;;5.90;;
20462;SDS011;10390;53.566;9.980;2022-12-26T12:05:28;16.40;;;5.70;;
20462;SDS011;10390;53.566;9.980;2022-12-26T12:08:48;12.23;;;5.18;;
20462;SDS011;10390;53.566;9.980;2022-12-26T12:11:21;15.65;;;5.22;;
20462;SDS011;10390;53.566;9.980;2022-12-26T12:27:45;16.90;;;5.97;;
20462;SDS011;10390;53.566;9.980;2022-12-26T12:30:30;16.48;;;6.40;;
20462;SDS011;10390;53.566;9.980;2022-12-26T12:36:07;12.48;;;6.18;;
20462;SDS011;10390;53.566;9.980;2022-12-26T12:38:55;15.55;;;6.30;;
20462;SDS011;10390;53.566;9.980;2022-12-26T12:44:55;15.30;;;6.30;;
20462;SDS011;10390;53.566;9.980;2022-12-26T12:50:24;12.10;;;5.68;;
20462;SDS011;10390;53.566;9.980;2022-12-26T12:53:03;14.40;;;6.60;;
20462;SDS011;10390;53.566;9.980;2022-12-26T12:58:29;11.38;;;5.25;;
20462;SDS011;10390;53.566;9.980;2022-12-26T13:01:14;9.32;;;5.30;;
20462;SDS011;10390;53.566;9.980;2022-12-26T13:03:47;10.13;;;5.28;;
20462;SDS011;10390;53.566;9.980;2022-12-26T13:06:15;10.70;;;5.60;;
20462;SDS011;10390;53.566;9.980;2022-12-26T13:09:03;12.23;;;5.57;;
20462;SDS011;10390;53.566;9.980;2022-12-26T13:11:47;10.18;;;5.45;;
20462;SDS011;10390;53.566;9.980;2022-12-26T13:14:23;12.38;;;5.28;;
20462;SDS011;10390;53.566;9.980;2022-12-26T13:16:57;11.25;;;5.10;;
20462;SDS011;10390;53.566;9.980;2022-12-26T13:19:29;9.75;;;5.28;;
20462;SDS011;10390;53.566;9.980;2022-12-26T13:22:03;10.68;;;5.00;;
20462;SDS011;10390;53.566;9.980;2022-12-26T13:24:44;8.15;;;4.65;;
20462;SDS011;10390;53.566;9.980;2022-12-26T13:27:24;18.50;;;5.03;;
20462;SDS011;10390;53.566;9.980;2022-12-26T13:29:54;7.43;;;4.60;;
20462;SDS011;10390;53.566;9.980;2022-12-26T13:34:45;9.80;;;4.78;;
20462;SDS011;10390;53.566;9.980;2022-12-26T13:39:59;7.05;;;5.13;;
20462;SDS011;10390;53.566;9.980;2022-12-26T13:42:33;10.82;;;5.60;;
20462;SDS011;10390;53.566;9.980;2022-12-26T13:48:53;10.77;;;5.53;;
20462;SDS011;10390;53.566;9.980;2022-12-26T13:50:56;11.90;;;6.22;;
20462;SDS011;10390;53.566;9.980;2022-12-26T13:55:59;14.48;;;5.82;;
20462;SDS011;10390;53.566;9.980;2022-12-26T14:00:54;14.98;;;5.68;;
20462;SDS011;10390;53.566;9.980;2022-12-26T14:03:45;7.85;;;5.20;;
20462;SDS011;10390;53.566;9.980;2022-12-26T14:09:18;7.35;;;4.85;;
20462;SDS011;10390;53.566;9.980;2022-12-26T14:12:49;9.85;;;5.28;;
20462;SDS011;10390;53.566;9.980;2022-12-26T14:15:07;10.68;;;5.60;;
20462;SDS011;10390;53.566;9.980;2022-12-26T14:37:09;9.25;;;5.55;;
20462;SDS011;10390;53.566;9.980;2022-12-26T14:42:30;8.15;;;5.93;;
20462;SDS011;10390;53.566;9.980;2022-12-26T14:47:52;7.38;;;5.07;;
20462;SDS011;10390;53.566;9.980;2022-12-26T14:50:38;8.52;;;5.45;;
20462;SDS011;10390;53.566;9.980;2022-12-26T14:53:28;7.30;;;4.85;;
20462;SDS011;10390;53.566;9.980;2022-12-26T15:09:37;7.85;;;4.53;;
20462;SDS011;10390;53.566;9.980;2022-12-26T15:23:34;5.57;;;3.60;;
20462;SDS011;10390;53.566;9.980;2022-12-26T15:32:15;5.25;;;3.47;;
20462;SDS011;10390;53.566;9.980;2022-12-26T15:34:56;6.18;;;4.00;;
20462;SDS011;10390;53.566;9.980;2022-12-26T15:42:49;5.50;;;3.65;;
20462;SDS011;10390;53.566;9.980;2022-12-26T15:45:45;6.45;;;3.78;;
20462;SDS011;10390;53.566;9.980;2022-12-26T15:51:12;5.97;;;3.53;;
20462;SDS011;10390;53.566;9.980;2022-12-26T15:56:14;5.28;;;3.40;;
20462;SDS011;10390;53.566;9.980;2022-12-26T15:59:47;5.40;;;3.38;;
20462;SDS011;10390;53.566;9.980;2022-12-26T16:01:55;6.13;;;3.60;;
20462;SDS011;10390;53.566;9.980;2022-12-26T16:04:27;6.88;;;3.60;;
20462;SDS011;10390;53.566;9.980;2022-12-26T16:07:08;5.40;;;3.30;;
20462;SDS011;10390;53.566;9.980;2022-12-26T16:09:51;6.28;;;3.70;;
20462;SDS011;10390;53.566;9.980;2022-12-26T16:12:20;5.78;;;3.20;;
20462;SDS011;10390;53.566;9.980;2022-12-26T16:17:35;4.70;;;3.15;;
20462;SDS011;10390;53.566;9.980;2022-12-26T16:20:15;5.47;;;3.35;;
20462;SDS011;10390;53.566;9.980;2022-12-26T16:22:41;4.50;;;3.08;;
20462;SDS011;10390;53.566;9.980;2022-12-26T16:27:44;5.47;;;3.30;;
20462;SDS011;10390;53.566;9.980;2022-12-26T16:30:14;6.38;;;3.22;;
20462;SDS011;10390;53.566;9.980;2022-12-26T16:32:43;4.97;;;3.15;;
20462;SDS011;10390;53.566;9.980;2022-12-26T16:35:17;6.22;;;3.25;;
20462;SDS011;10390;53.566;9.980;2022-12-26T16:37:57;4.68;;;3.00;;
20462;SDS011;10390;53.566;9.980;2022-12-26T16:40:28;5.47;;;3.15;;
20462;SDS011;10390;53.566;9.980;2022-12-26T16:43:00;5.10;;;2.90;;
20462;SDS011;10390;53.566;9.980;2022-12-26T16:45:50;6.05;;;3.30;;
20462;SDS011;10390;53.566;9.980;2022-12-26T16:48:20;4.55;;;2.90;;
20462;SDS011;10390;53.566;9.980;2022-12-26T16:50:52;4.53;;;2.90;;
20462;SDS011;10390;53.566;9.980;2022-12-26T16:59:03;5.63;;;3.05;;
20462;SDS011;10390;53.566;9.980;2022-12-26T17:01:47;5.05;;;2.95;;
20462;SDS011;10390;53.566;9.980;2022-12-26T17:04:19;4.93;;;2.95;;
20462;SDS011;10390;53.566;9.980;2022-12-26T17:06:50;4.88;;;3.03;;
20462;SDS011;10390;53.566;9.980;2022-12-26T17:09:23;5.72;;;3.17;;
20462;SDS011;10390;53.566;9.980;2022-12-26T17:11:55;5.20;;;3.15;;
20462;SDS011;10390;53.566;9.980;2022-12-26T17:14:30;5.78;;;3.33;;
20462;SDS011;10390;53.566;9.980;2022-12-26T17:17:02;5.07;;;3.00;;
20462;SDS011;10390;53.566;9.980;2022-12-26T17:19:46;6.53;;;3.40;;
20462;SDS011;10390;53.566;9.980;2022-12-26T17:24:38;5.68;;;3.20;;
20462;SDS011;10390;53.566;9.980;2022-12-26T17:30:00;5.68;;;2.95;;
20462;SDS011;10390;53.566;9.980;2022-12-26T17:32:51;5.53;;;3.33;;
20462;SDS011;10390;53.566;9.980;2022-12-26T17:35:18;4.70;;;3.03;;
20462;SDS011;10390;53.566;9.980;2022-12-26T17:37:50;4.75;;;2.90;;
20462;SDS011;10390;53.566;9.980;2022-12-26T17:40:22;5.85;;;3.00;;
20462;SDS011;10390;53.566;9.980;2022-12-26T17:42:52;4.82;;;3.00;;
20462;SDS011;10390;53.566;9.980;2022-12-26T17:45:23;5.32;;;3.10;;
20462;SDS011;10390;53.566;9.980;2022-12-26T17:47:52;5.47;;;3.00;;
20462;SDS011;10390;53.566;9.980;2022-12-26T17:50:19;5.65;;;3.22;;
20462;SDS011;10390;53.566;9.980;2022-12-26T17:52:46;5.18;;;3.10;;
20462;SDS011;10390;53.566;9.980;2022-12-26T17:55:16;5.18;;;3.10;;
20462;SDS011;10390;53.566;9.980;2022-12-26T17:57:51;6.20;;;3.10;;
20462;SDS011;10390;53.566;9.980;2022-12-26T18:00:18;5.18;;;3.20;;
20462;SDS011;10390;53.566;9.980;2022-12-26T18:02:46;5.93;;;3.20;;
20462;SDS011;10390;53.566;9.980;2022-12-26T18:05:12;4.82;;;3.20;;
20462;SDS011;10390;53.566;9.980;2022-12-26T18:07:38;5.75;;;3.33;;
20462;SDS011;10390;53.566;9.980;2022-12-26T18:10:04;4.80;;;3.08;;
20462;SDS011;10390;53.566;9.980;2022-12-26T18:12:31;5.85;;;3.05;;
20462;SDS011;10390;53.566;9.980;2022-12-26T18:14:56;5.30;;;3.22;;
20462;SDS011;10390;53.566;9.980;2022-12-26T18:17:22;5.55;;;3.05;;
20462;SDS011;10390;53.566;9.980;2022-12-26T18:19:48;6.18;;;3.53;;
20462;SDS011;10390;53.566;9.980;2022-12-26T18:22:15;5.78;;;3.10;;
20462;SDS011;10390;53.566;9.980;2022-12-26T18:24:42;5.47;;;3.20;;
20462;SDS011;10390;53.566;9.980;2022-12-26T18:27:16;6.20;;;3.38;;
20462;SDS011;10390;53.566;9.980;2022-12-26T18:29:49;5.30;;;3.22;;
20462;SDS011;10390;53.566;9.980;2022-12-26T18:34:49;7.05;;;3.92;;
20462;SDS011;10390;53.566;9.980;2022-12-26T18:37:15;5.88;;;3.60;;
20462;SDS011;10390;53.566;9.980;2022-12-26T18:39:40;6.03;;;3.55;;
20462;SDS011;10390;53.566;9.980;2022-12-26T18:42:09;6.43;;;3.33;;
20462;SDS011;10390;53.566;9.980;2022-12-26T18:44:39;6.63;;;3.55;;
20462;SDS011;10390;53.566;9.980;2022-12-26T18:47:08;7.57;;;3.92;;
20462;SDS011;10390;53.566;9.980;2022-12-26T18:49:36;6.65;;;3.75;;
20462;SDS011;10390;53.566;9.980;2022-12-26T18:52:02;7.75;;;3.92;;
20462;SDS011;10390;53.566;9.980;2022-12-26T18:54:27;7.18;;;4.18;;
20462;SDS011;10390;53.566;9.980;2022-12-26T18:56:53;8.10;;;4.50;;
20462;SDS011;10390;53.566;9.980;2022-12-26T18:59:19;6.28;;;4.07;;